Luz De Mar — ECIJ — position and weather

sailwx.info

Track history (hours):
 
Tides and Currents Weather Stations Pressure Air Temp Water Temp Dewpoint Dewpoint Depression Visibility Wind Speed Wind Dir Waves Ship Positions

Luz De Mar

Last reported at 2016-Sep-20 14:05 UTC. Time now 2016-Sep-28 22:15 UTC.
Position N 36°08' W 005°26'.
Warning: this ship's position is 8 days out of date.

Length 56 m; draft 6.7 m.

Type: SAR. MMSI: 224311000.

Date/timePositionNaut miles runAvg speedWind from/ knotsBaromVisibWave heightAir tempDewpointWater temp
2016-Sep-20 14:05N 36°08' W 005°26'3 6.3
2016-Sep-20 13:34N 36°06' W 005°24'14 2.3
2016-Sep-20 07:33N 35°59' W 005°39'1010.5
2016-Sep-20 06:33N 36°02' W 005°27'8 0.2
2016-Sep-18 10:21N 36°10' W 005°24'2 3.0
2016-Sep-18 09:33N 36°07' W 005°24'14 2.0
2016-Sep-18 02:32N 35°54' W 005°19'0 0.0
2016-Sep-18 01:31N 35°54' W 005°19'0 0.0
2016-Sep-18 00:32N 35°54' W 005°19'0 0.0
2016-Sep-17 22:32N 35°54' W 005°19'0 0.0
2016-Sep-17 21:32N 35°54' W 005°19'0 0.0
2016-Sep-17 20:32N 35°54' W 005°19'0 0.0
2016-Sep-17 19:13N 35°54' W 005°19'0 0.0
2016-Sep-17 13:32N 35°54' W 005°19'0 0.0
2016-Sep-17 12:31N 35°54' W 005°19'0 0.0
2016-Sep-17 10:32N 35°54' W 005°19'0 0.0
2016-Sep-17 09:31N 35°54' W 005°19'0 0.0
2016-Sep-17 08:31N 35°54' W 005°19'0 0.0
2016-Sep-17 07:32N 35°54' W 005°19'0 0.0
2016-Sep-17 05:32N 35°54' W 005°19'0 0.0
2016-Sep-17 04:31N 35°54' W 005°19'0 0.0
2016-Sep-17 00:31N 35°54' W 005°19'0 0.0
2016-Sep-16 17:31N 35°54' W 005°19'0 0.0
2016-Sep-16 15:31N 35°54' W 005°19'9 2.9
2016-Sep-16 12:33N 35°59' W 005°27'9 2.9
2016-Sep-16 09:33N 35°54' W 005°19'0 0.0
2016-Sep-16 07:33N 35°54' W 005°19'0 0.0
2016-Sep-16 03:33N 35°54' W 005°19'0 0.0
2016-Sep-16 02:33N 35°54' W 005°19'0 0.0
2016-Sep-16 00:30N 35°54' W 005°19'0 0.0
2016-Sep-15 22:33N 35°54' W 005°19'0 0.0
2016-Sep-15 21:33N 35°54' W 005°19'0 0.0
2016-Sep-15 20:33N 35°54' W 005°19'0 0.0
2016-Sep-15 18:33N 35°54' W 005°19'0 0.0
2016-Sep-15 12:33N 35°54' W 005°19'0 0.0
2016-Sep-15 11:27N 35°54' W 005°19'  
Track history (hours):
 
Tides and Currents Weather Stations Pressure Air Temp Water Temp Dewpoint Dewpoint Depression Visibility Wind Speed Wind Dir Waves Ship Positions

Luz De Mar

Last reported at 2016-Sep-20 14:05 UTC. Time now 2016-Sep-28 22:15 UTC.
Position N 36°08' W 005°26'.
Warning: this ship's position is 8 days out of date.

Length 56 m; draft 6.7 m.

Type: SAR. MMSI: 224311000.

Date/timePositionNaut miles runAvg speedWind from/ knotsBaromVisibWave heightAir tempDewpointWater temp
2016-Sep-20 14:05N 36°08' W 005°26'3 6.3
2016-Sep-20 13:34N 36°06' W 005°24'14 2.3
2016-Sep-20 07:33N 35°59' W 005°39'1010.5
2016-Sep-20 06:33N 36°02' W 005°27'8 0.2
2016-Sep-18 10:21N 36°10' W 005°24'2 3.0
2016-Sep-18 09:33N 36°07' W 005°24'14 2.0
2016-Sep-18 02:32N 35°54' W 005°19'0 0.0
2016-Sep-18 01:31N 35°54' W 005°19'0 0.0
2016-Sep-18 00:32N 35°54' W 005°19'0 0.0
2016-Sep-17 22:32N 35°54' W 005°19'0 0.0
2016-Sep-17 21:32N 35°54' W 005°19'0 0.0
2016-Sep-17 20:32N 35°54' W 005°19'0 0.0
2016-Sep-17 19:13N 35°54' W 005°19'0 0.0
2016-Sep-17 13:32N 35°54' W 005°19'0 0.0
2016-Sep-17 12:31N 35°54' W 005°19'0 0.0
2016-Sep-17 10:32N 35°54' W 005°19'0 0.0
2016-Sep-17 09:31N 35°54' W 005°19'0 0.0
2016-Sep-17 08:31N 35°54' W 005°19'0 0.0
2016-Sep-17 07:32N 35°54' W 005°19'0 0.0
2016-Sep-17 05:32N 35°54' W 005°19'0 0.0
2016-Sep-17 04:31N 35°54' W 005°19'0 0.0
2016-Sep-17 00:31N 35°54' W 005°19'0 0.0
2016-Sep-16 17:31N 35°54' W 005°19'0 0.0
2016-Sep-16 15:31N 35°54' W 005°19'9 2.9
2016-Sep-16 12:33N 35°59' W 005°27'9 2.9
2016-Sep-16 09:33N 35°54' W 005°19'0 0.0
2016-Sep-16 07:33N 35°54' W 005°19'0 0.0
2016-Sep-16 03:33N 35°54' W 005°19'0 0.0
2016-Sep-16 02:33N 35°54' W 005°19'0 0.0
2016-Sep-16 00:30N 35°54' W 005°19'0 0.0
2016-Sep-15 22:33N 35°54' W 005°19'0 0.0
2016-Sep-15 21:33N 35°54' W 005°19'0 0.0
2016-Sep-15 20:33N 35°54' W 005°19'0 0.0
2016-Sep-15 18:33N 35°54' W 005°19'0 0.0
2016-Sep-15 12:33N 35°54' W 005°19'0 0.0
2016-Sep-15 11:27N 35°54' W 005°19'  

Dump ship's entire track history